createdAt,value
2019-01-13T13:25:15.055Z,97237.17
2019-01-13T13:27:47.129Z,97238.36
2019-01-13T13:30:22.499Z,97231.59
2019-01-13T13:32:54.448Z,97229.53
2019-01-13T13:35:29.454Z,97223.05
2019-01-13T13:38:01.504Z,97219.53
2019-01-13T13:40:35.202Z,97215.59
2019-01-13T13:43:06.862Z,97222.96
2019-01-13T13:45:38.800Z,97213.50
2019-01-13T13:48:10.497Z,97215.48
2019-01-13T13:50:42.174Z,97214.05
2019-01-13T13:53:13.901Z,97208.09
2019-01-13T13:55:46.961Z,97207.04
2019-01-13T13:58:18.896Z,97204.34
2019-01-13T14:00:50.693Z,97194.94
2019-01-13T14:03:22.366Z,97191.19
2019-01-13T14:05:54.162Z,97179.42
2019-01-13T14:08:25.832Z,97171.45
2019-01-13T14:10:58.921Z,97163.67
2019-01-13T14:13:30.599Z,97154.16
2019-01-13T14:16:03.063Z,97142.23
2019-01-13T14:18:34.872Z,97136.86
2019-01-13T14:21:06.818Z,97137.97
2019-01-13T14:23:43.095Z,97137.97
2019-01-13T14:26:15.782Z,97140.58
2019-01-13T14:28:47.725Z,97131.37
2019-01-13T14:31:19.575Z,97121.83
2019-01-13T14:33:53.264Z,97102.45
2019-01-13T14:36:27.786Z,97114.45
2019-01-13T14:38:59.751Z,97097.15
2019-01-13T14:41:31.502Z,97087.70
2019-01-13T14:44:06.434Z,97082.02
2019-01-13T14:46:40.623Z,97076.98
2019-01-13T14:49:12.302Z,97072.77
2019-01-13T14:51:46.560Z,97078.58
2019-01-13T14:57:30.009Z,97079.44
2019-01-13T15:00:01.610Z,97080.28
2019-01-13T15:02:33.260Z,97078.77
2019-01-13T15:05:07.134Z,97065.08
2019-01-13T15:07:38.767Z,97065.00
2019-01-13T15:10:12.089Z,97057.22
2019-01-13T15:12:43.696Z,97070.67
2019-01-13T15:15:16.048Z,97074.81
2019-01-13T15:17:47.715Z,97065.73
2019-01-13T15:20:24.657Z,97062.54
2019-01-13T15:22:56.365Z,97057.86
2019-01-13T15:25:30.626Z,97078.51
2019-01-13T15:28:03.469Z,97069.53
2019-01-13T15:30:37.637Z,97075.31
2019-01-13T15:33:10.820Z,97079.91
2019-01-13T15:35:44.199Z,97076.13
2019-01-13T15:38:16.087Z,97077.97
2019-01-13T15:40:47.821Z,97072.17
2019-01-13T15:43:19.483Z,97064.88
2019-01-13T15:45:51.108Z,97057.55
2019-01-13T15:48:24.563Z,97059.78
2019-01-13T15:50:58.420Z,97054.96
2019-01-13T15:53:30.153Z,97051.30
2019-01-13T15:56:03.772Z,97034.66
2019-01-13T15:58:35.230Z,97035.97
2019-01-13T16:01:06.981Z,97020.12
2019-01-13T16:03:38.609Z,97017.29
2019-01-13T16:06:10.290Z,97018.47
2019-01-13T16:08:41.914Z,97008.33
2019-01-13T16:11:13.510Z,97011.30
2019-01-13T16:13:46.415Z,97003.61
2019-01-13T16:16:18.017Z,96995.00
2019-01-13T16:18:49.629Z,96989.45
2019-01-13T16:21:21.771Z,96982.23
2019-01-13T16:23:53.525Z,96989.09
2019-01-13T16:26:26.107Z,96982.59
2019-01-13T16:29:02.507Z,96985.89
2019-01-13T16:31:32.678Z,96981.31
2019-01-13T16:34:04.324Z,96969.50
2019-01-13T16:36:39.376Z,96968.67
2019-01-13T16:39:14.042Z,96973.51
2019-01-13T16:41:46.817Z,96966.64
2019-01-13T16:44:18.420Z,96966.66
2019-01-13T16:46:54.895Z,96962.28
2019-01-13T16:49:26.522Z,96959.56
2019-01-13T16:51:58.159Z,96949.65
2019-01-13T16:54:29.749Z,96937.97
2019-01-13T16:57:02.882Z,96948.69
2019-01-13T16:59:37.024Z,96932.28
2019-01-13T17:02:08.726Z,96928.39
2019-01-13T17:04:43.526Z,96909.62
2019-01-13T17:07:15.227Z,96905.25
2019-01-13T17:09:46.956Z,96901.80
2019-01-13T17:12:21.351Z,96915.52
2019-01-13T17:14:52.996Z,96913.49
2019-01-13T17:17:24.634Z,96908.98
2019-01-13T17:19:56.304Z,96912.77
2019-01-13T17:22:28.047Z,96907.81
2019-01-13T17:25:00.750Z,96912.97
2019-01-13T17:27:33.710Z,96903.14
2019-01-13T17:30:08.433Z,96921.94
2019-01-13T17:32:40.080Z,96916.17
2019-01-13T17:35:11.671Z,96904.23
2019-01-13T17:37:43.431Z,96906.11
2019-01-13T17:40:17.928Z,96902.08
2019-01-13T17:42:49.614Z,96909.31
2019-01-13T17:45:25.989Z,96898.55
2019-01-13T17:47:57.666Z,96904.11
2019-01-13T17:50:29.830Z,96892.41
2019-01-13T17:53:01.554Z,96893.11
2019-01-13T17:55:33.701Z,96898.87
2019-01-13T17:58:05.336Z,96894.84
2019-01-13T18:00:58.099Z,96903.38
2019-01-13T18:03:44.478Z,96886.11
2019-01-13T18:06:16.289Z,96901.59
2019-01-13T18:08:47.921Z,96890.74
2019-01-13T18:11:21.669Z,96893.91
2019-01-13T18:13:56.086Z,96877.83
2019-01-13T18:16:29.782Z,96869.41
2019-01-13T18:19:01.496Z,96869.09
2019-01-13T18:21:33.178Z,96866.98
2019-01-13T18:24:05.010Z,96860.93
2019-01-13T18:26:36.725Z,96864.70
2019-01-13T18:29:08.596Z,96866.62
2019-01-13T18:31:40.210Z,96846.43
2019-01-13T18:34:11.961Z,96851.38
2019-01-13T18:36:43.525Z,96834.01
2019-01-13T18:39:15.165Z,96832.25
2019-01-13T18:41:47.944Z,96831.08
2019-01-13T18:44:19.584Z,96812.89
2019-01-13T18:46:51.246Z,96806.27
2019-01-13T18:49:22.898Z,96799.77
2019-01-13T18:51:54.588Z,96797.16
2019-01-13T18:54:26.349Z,96791.48
2019-01-13T18:56:57.966Z,96788.39
2019-01-13T18:59:29.757Z,96788.25
2019-01-13T19:02:01.404Z,96785.54
2019-01-13T19:04:33.035Z,96787.45
2019-01-13T19:07:04.643Z,96785.09
2019-01-13T19:09:36.452Z,96797.62
2019-01-13T19:12:09.284Z,96791.38
2019-01-13T19:14:49.682Z,96781.70
2019-01-13T19:17:24.654Z,96787.94
2019-01-13T19:20:23.486Z,96779.66
2019-01-13T19:23:10.448Z,96780.39
2019-01-13T19:25:43.159Z,96781.20
2019-01-13T19:28:15.746Z,96783.55
2019-01-13T19:30:47.430Z,96772.11
2019-01-13T19:33:19.136Z,96774.47
2019-01-13T19:35:52.423Z,96760.43
2019-01-13T19:38:24.113Z,96781.46
2019-01-13T19:40:55.802Z,96776.75
2019-01-13T19:43:28.548Z,96757.58
2019-01-13T19:46:00.297Z,96749.53
2019-01-13T19:48:31.932Z,96740.30
2019-01-13T19:51:03.536Z,96737.58
2019-01-13T19:53:35.209Z,96731.56
2019-01-13T19:56:07.182Z,96724.84
2019-01-13T19:58:40.028Z,96734.85
2019-01-13T20:01:11.774Z,96728.16
2019-01-13T20:03:45.062Z,96714.44
2019-01-13T20:06:16.800Z,96737.95
2019-01-13T20:08:48.490Z,96732.05
2019-01-13T20:11:21.166Z,96731.84
2019-01-13T20:13:52.932Z,96738.47
2019-01-13T20:16:24.541Z,96738.21
2019-01-13T20:18:56.628Z,96750.50
2019-01-13T20:21:28.318Z,96742.59
2019-01-13T20:24:00.240Z,96744.84
2019-01-13T20:26:31.901Z,96742.83
2019-01-13T20:29:03.601Z,96741.05
2019-01-13T20:31:35.201Z,96743.03
2019-01-13T20:34:06.971Z,96747.42
2019-01-13T20:36:38.593Z,96746.34
2019-01-13T20:39:11.179Z,96746.42
2019-01-13T20:41:42.822Z,96753.53
2019-01-13T20:44:14.450Z,96757.80
2019-01-13T20:46:46.177Z,96758.23
2019-01-13T20:49:17.908Z,96765.59
2019-01-13T20:51:49.600Z,96756.63
2019-01-13T20:54:21.223Z,96748.59
2019-01-13T20:56:52.897Z,96763.14
2019-01-13T20:59:24.722Z,96762.58
2019-01-13T21:01:56.357Z,96767.91
2019-01-13T21:04:27.945Z,96772.98
2019-01-13T21:06:59.715Z,96771.13
2019-01-13T21:09:31.440Z,96773.73
2019-01-13T21:12:03.170Z,96772.44
2019-01-13T21:14:34.900Z,96765.38
2019-01-13T21:17:06.535Z,96765.58
2019-01-13T21:19:38.171Z,96765.95
2019-01-13T21:22:09.870Z,96775.98
2019-01-13T21:24:41.558Z,96774.55
2019-01-13T21:27:13.238Z,96774.30
2019-01-13T21:29:44.926Z,96778.88
2019-01-13T21:32:16.528Z,96785.25
2019-01-13T21:34:48.185Z,96784.55
2019-01-13T21:37:19.846Z,96777.44
2019-01-13T21:39:51.524Z,96772.73
2019-01-13T21:42:24.247Z,96772.13
2019-01-13T21:44:55.905Z,96776.53
2019-01-13T21:47:27.711Z,96779.00
2019-01-13T21:49:59.353Z,96787.28
2019-01-13T21:52:31.080Z,96793.64
2019-01-13T21:55:02.662Z,96785.11
2019-01-13T21:57:34.410Z,96792.55
2019-01-13T22:00:15.019Z,96783.91
2019-01-13T22:02:46.644Z,96774.22
2019-01-13T22:05:18.942Z,96784.42
2019-01-13T22:07:50.689Z,96786.78
2019-01-13T22:10:23.680Z,96781.59
2019-01-13T22:12:56.640Z,96792.09
2019-01-13T22:15:28.228Z,96783.58
2019-01-13T22:17:59.942Z,96789.87
2019-01-13T22:20:31.734Z,96790.80
2019-01-13T22:23:03.460Z,96791.30
2019-01-13T22:25:35.073Z,96799.78
2019-01-13T22:28:06.715Z,96790.68
2019-01-13T22:30:39.929Z,96794.58
2019-01-13T22:33:11.564Z,96787.34
2019-01-13T22:35:48.135Z,96784.30
2019-01-13T22:38:16.798Z,96774.33
2019-01-13T22:40:48.404Z,96764.63
2019-01-13T22:43:20.115Z,96776.70
2019-01-13T22:45:51.732Z,96764.67
2019-01-13T22:48:24.987Z,96767.27
2019-01-13T22:50:56.714Z,96772.72
2019-01-13T22:53:28.331Z,96775.70
2019-01-13T22:56:02.523Z,96769.22
2019-01-13T22:58:34.111Z,96779.38
2019-01-13T23:01:43.840Z,96769.84
2019-01-13T23:04:17.488Z,96763.97
2019-01-13T23:06:49.215Z,96776.20
2019-01-13T23:09:20.805Z,96790.49
2019-01-13T23:11:54.441Z,96766.44
2019-01-13T23:14:26.117Z,96775.08
2019-01-13T23:16:57.712Z,96791.48
2019-01-13T23:19:30.633Z,96790.70
2019-01-13T23:22:02.243Z,96788.80
2019-01-13T23:24:33.841Z,96786.33
2019-01-13T23:27:05.545Z,96773.92
2019-01-13T23:29:37.139Z,96779.59
2019-01-13T23:32:08.820Z,96786.57
2019-01-13T23:34:40.511Z,96787.75
2019-01-13T23:37:12.098Z,96785.73
2019-01-13T23:39:43.677Z,96796.14
2019-01-13T23:42:16.590Z,96800.24
2019-01-13T23:44:48.198Z,96798.85
2019-01-13T23:47:19.795Z,96807.57
2019-01-13T23:49:51.537Z,96798.28
2019-01-13T23:52:23.118Z,96805.70
2019-01-13T23:54:54.743Z,96816.56
2019-01-13T23:57:26.454Z,96825.41
2019-01-13T23:59:58.024Z,96827.76
